Time;durP1;ratioP1;P1;durP2;ratioP2;P2;SDS_P1;SDS_P2;PMS_P1;PMS_P2;Temp;Humidity;BMP_temperature;BMP_pressure;BME280_temperature;BME280_humidity;BME280_pressure;Samples;Min_cycle;Max_cycle;Signal;HPM_P1;HPM_P2
2023/05/17 00:03:23;;;;;;;3.40;2.30;;;;;;;9.25;47.26;100135.88;10397746;28;20322;-37
2023/05/17 00:08:25;;;;;;;4.73;2.40;;;;;;;9.67;46.50;100166.03;10395030;28;20469;-36
2023/05/17 00:13:27;;;;;;;4.40;2.90;;;;;;;8.42;48.40;100110.03;10397997;28;20335;-36
2023/05/17 00:18:28;;;;;;;5.47;2.37;;;;;;;8.37;48.77;100118.53;10404078;28;20236;-36
2023/05/17 00:23:30;;;;;;;3.37;2.40;;;;;;;8.23;49.07;100101.28;10405063;28;20770;-37
2023/05/17 00:28:32;;;;;;;3.20;2.47;;;;;;;7.83;49.80;100085.94;10398195;28;20240;-37
2023/05/17 00:33:34;;;;;;;3.77;2.63;;;;;;;8.45;49.37;100126.56;10411185;28;20327;-37
2023/05/17 00:38:35;;;;;;;4.47;2.77;;;;;;;8.79;48.19;100130.13;10400027;28;20255;-37
2023/05/17 00:43:38;;;;;;;4.27;2.77;;;;;;;7.40;50.23;100067.22;10406852;28;20245;-37
2023/05/17 00:48:40;;;;;;;3.60;2.43;;;;;;;7.73;50.82;100091.41;10409673;28;20322;-36
2023/05/17 00:53:42;;;;;;;2.87;2.50;;;;;;;7.21;51.47;100065.59;10410754;28;20548;-36
2023/05/17 00:58:44;;;;;;;6.47;3.30;;;;;;;7.87;50.00;100117.47;10404532;28;20232;-37
2023/05/17 01:03:46;;;;;;;5.73;2.50;;;;;;;10.14;46.93;100176.00;10408984;28;20314;-37
2023/05/17 01:08:48;;;;;;;4.27;3.13;;;;;;;11.18;44.97;100199.94;10405909;28;20718;-37
2023/05/17 01:14:27;;;;;;;4.83;2.90;;;;;;;8.95;47.18;100175.56;10411029;28;20223;-36
2023/05/17 01:19:59;;;;;;;3.33;2.97;;;;;;;10.79;45.60;100224.94;10386690;28;20324;-37
2023/05/17 01:25:23;;;;;;;5.07;3.20;;;;;;;8.84;48.46;100218.53;10398355;28;20228;-36
2023/05/17 01:30:27;;;;;;;5.17;2.90;;;;;;;8.96;48.58;100227.97;10408875;28;20315;-37
2023/05/17 01:35:29;;;;;;;4.37;2.70;;;;;;;8.66;48.58;100207.97;10412701;28;20212;-37
2023/05/17 01:40:35;;;;;;;5.27;2.90;;;;;;;8.96;48.24;100224.44;10406499;28;20243;-36
2023/05/17 01:45:52;;;;;;;5.10;3.00;;;;;;;10.29;46.05;100264.38;10402897;28;20323;-36
2023/05/17 01:50:57;;;;;;;4.53;2.80;;;;;;;8.25;48.50;100197.97;10402002;28;20235;-35
2023/05/17 01:56:14;;;;;;;6.70;2.97;;;;;;;8.99;48.53;100259.66;10397741;28;20233;-36
2023/05/17 02:01:18;;;;;;;5.93;3.27;;;;;;;9.20;47.95;100253.03;10404484;28;20322;-35
2023/05/17 02:06:19;;;;;;;6.80;2.80;;;;;;;8.52;48.68;100240.59;10401377;28;20655;-36
2023/05/17 02:11:21;;;;;;;4.23;2.80;;;;;;;7.53;50.73;100178.66;10405957;28;20580;-36
2023/05/17 02:16:23;;;;;;;3.60;3.30;;;;;;;7.95;50.49;100215.28;10409246;28;20584;-35
2023/05/17 02:21:25;;;;;;;3.37;3.03;;;;;;;9.94;47.08;100250.44;10408251;28;20669;-35
2023/05/17 02:26:27;;;;;;;4.03;3.30;;;;;;;9.77;46.43;100265.63;10389704;28;20639;-36
2023/05/17 02:31:28;;;;;;;4.83;3.00;;;;;;;8.82;48.27;100250.72;10404635;28;20224;-36
2023/05/17 02:36:31;;;;;;;4.17;2.70;;;;;;;9.16;48.23;100291.72;10400354;28;20678;-35
2023/05/17 02:41:32;;;;;;;3.93;2.60;;;;;;;8.79;48.50;100288.41;10406138;28;20238;-36
2023/05/17 02:46:34;;;;;;;4.87;3.23;;;;;;;8.11;49.87;100255.34;10404567;28;20882;-36
2023/05/17 02:51:39;;;;;;;3.70;3.27;;;;;;;8.02;50.37;100252.81;10399191;28;20266;-35
2023/05/17 02:56:40;;;;;;;6.13;3.27;;;;;;;7.87;50.64;100226.72;10402006;28;20233;-35
2023/05/17 03:01:42;;;;;;;7.07;3.43;;;;;;;8.01;50.57;100240.47;10402592;28;20264;-36
2023/05/17 03:06:44;;;;;;;4.63;2.80;;;;;;;10.44;46.98;100289.44;10403255;28;20371;-36
2023/05/17 03:11:46;;;;;;;4.87;2.90;;;;;;;10.35;46.71;100305.69;10405047;28;20728;-36
2023/05/17 03:16:48;;;;;;;5.70;3.20;;;;;;;9.51;48.08;100314.69;10405965;28;20228;-35
2023/05/17 03:21:50;;;;;;;4.77;3.17;;;;;;;10.09;47.02;100326.28;10402386;28;20306;-35
2023/05/17 03:26:51;;;;;;;3.83;2.80;;;;;;;10.02;47.17;100337.81;10396487;28;20276;-36
2023/05/17 03:31:54;;;;;;;5.47;2.90;;;;;;;10.30;47.16;100341.78;10401199;28;20224;-35
2023/05/17 03:36:55;;;;;;;5.23;2.83;;;;;;;10.05;47.21;100351.66;10404272;28;20240;-35
2023/05/17 03:41:57;;;;;;;4.67;3.37;;;;;;;9.56;47.37;100344.41;10389739;28;20252;-36
2023/05/17 03:46:59;;;;;;;5.00;3.03;;;;;;;9.23;49.10;100346.19;10376328;28;20315;-35
2023/05/17 03:52:02;;;;;;;6.30;3.70;;;;;;;10.84;46.41;100351.09;10358731;28;20713;-36
2023/05/17 03:57:04;;;;;;;5.20;3.03;;;;;;;9.69;47.30;100337.75;10393488;28;20236;-36
2023/05/17 04:02:05;;;;;;;5.27;3.60;;;;;;;11.00;47.20;100359.06;10388197;28;20232;-35
2023/05/17 04:07:07;;;;;;;7.47;3.40;;;;;;;10.72;47.11;100380.03;10389302;28;20329;-36
2023/05/17 04:12:09;;;;;;;5.00;3.20;;;;;;;10.66;47.23;100386.91;10392674;28;20275;-36
2023/05/17 04:17:11;;;;;;;5.60;2.90;;;;;;;11.05;47.10;100385.31;10398587;28;20359;-36
2023/05/17 04:22:14;;;;;;;5.67;3.17;;;;;;;10.83;46.92;100403.81;10409421;28;20227;-35
2023/05/17 04:27:15;;;;;;;6.63;3.33;;;;;;;11.39;45.63;100405.63;10408979;28;20259;-35
2023/05/17 04:32:17;;;;;;;5.10;3.07;;;;;;;10.04;48.03;100391.94;10408343;28;20228;-35
2023/05/17 04:37:19;;;;;;;7.67;3.30;;;;;;;9.59;48.56;100404.72;10407068;28;20258;-35
2023/05/17 04:42:21;;;;;;;6.27;3.53;;;;;;;10.40;47.59;100426.41;10415918;28;20237;-35
2023/05/17 04:47:23;;;;;;;5.57;3.30;;;;;;;10.89;47.61;100427.19;10403428;28;20307;-35
2023/05/17 04:52:25;;;;;;;6.10;3.60;;;;;;;11.32;46.86;100424.25;10410291;28;20244;-35
2023/05/17 04:57:27;;;;;;;4.00;3.10;;;;;;;10.61;48.03;100453.47;10407040;28;20256;-35
2023/05/17 05:02:28;;;;;;;8.30;4.07;;;;;;;11.13;47.79;100430.81;10407872;28;20761;-35
2023/05/17 05:07:30;;;;;;;4.83;3.50;;;;;;;10.48;48.36;100437.13;10405300;28;20319;-35
2023/05/17 05:12:32;;;;;;;5.13;3.30;;;;;;;11.31;47.59;100433.28;10412523;28;20247;-35
2023/05/17 05:17:33;;;;;;;6.60;3.80;;;;;;;9.96;50.02;100457.78;10409845;28;20284;-35
2023/05/17 05:22:35;;;;;;;6.53;3.87;;;;;;;9.08;50.87;100414.50;10410533;28;20232;-35
2023/05/17 05:27:37;;;;;;;4.80;3.60;;;;;;;9.69;50.02;100464.19;10409691;28;20263;-35
2023/05/17 05:32:39;;;;;;;4.73;3.37;;;;;;;9.45;50.58;100462.28;10407556;28;20290;-35
2023/05/17 05:37:42;;;;;;;5.10;3.50;;;;;;;9.02;50.79;100451.53;10411602;28;20943;-35
2023/05/17 05:42:43;;;;;;;5.13;3.67;;;;;;;9.31;50.61;100450.34;10394300;28;20289;-36
2023/05/17 05:47:45;;;;;;;6.90;3.97;;;;;;;9.80;50.71;100457.69;10408686;28;20232;-36
2023/05/17 05:52:47;;;;;;;4.40;3.13;;;;;;;9.88;50.56;100452.41;10403838;28;20250;-35
2023/05/17 05:57:49;;;;;;;6.37;4.00;;;;;;;8.96;51.07;100452.19;10402496;28;20261;-35
2023/05/17 06:02:52;;;;;;;4.67;3.53;;;;;;;9.18;50.21;100472.16;10407664;28;20239;-36
2023/05/17 06:07:54;;;;;;;4.73;3.03;;;;;;;7.72;51.77;100348.94;10405229;28;20239;-35
2023/05/17 06:12:56;;;;;;;10.30;3.50;;;;;;;8.82;51.10;100474.88;10402400;28;20312;-35
2023/05/17 06:17:58;;;;;;;3.87;3.43;;;;;;;10.30;49.38;100494.28;10404001;28;20740;-35
2023/05/17 06:23:00;;;;;;;6.97;3.83;;;;;;;9.33;50.34;100496.44;10407118;28;20217;-35
2023/05/17 06:28:03;;;;;;;4.90;3.20;;;;;;;8.94;50.19;100469.31;10403369;28;20351;-35
2023/05/17 06:33:04;;;;;;;5.83;3.73;;;;;;;9.46;49.74;100503.19;10406282;28;20291;-35
2023/05/17 06:38:06;;;;;;;4.53;3.50;;;;;;;9.90;49.63;100519.09;10405980;28;20235;-36
2023/05/17 06:43:08;;;;;;;5.77;3.43;;;;;;;10.95;49.32;100487.28;10401905;28;20243;-36
2023/05/17 06:48:11;;;;;;;8.13;4.07;;;;;;;9.47;49.84;100524.41;10403903;28;20320;-36
2023/05/17 06:53:13;;;;;;;5.20;4.13;;;;;;;10.63;48.37;100526.44;10404297;28;20224;-35
2023/05/17 06:58:14;;;;;;;5.30;3.70;;;;;;;10.29;50.07;100546.13;10397742;28;20232;-35
2023/05/17 07:03:16;;;;;;;5.03;3.40;;;;;;;10.49;49.53;100537.78;10396839;28;20233;-35
2023/05/17 07:08:18;;;;;;;8.63;4.00;;;;;;;10.94;48.68;100530.31;10404785;28;20316;-35
2023/05/17 07:13:20;;;;;;;6.53;4.10;;;;;;;10.98;48.15;100535.13;10407034;28;20226;-35
2023/05/17 07:18:22;;;;;;;8.00;4.20;;;;;;;9.80;48.68;100550.44;10396840;28;20320;-35
2023/05/17 07:23:23;;;;;;;6.83;3.77;;;;;;;10.64;48.93;100576.25;10415246;28;20239;-35
2023/05/17 07:28:25;;;;;;;8.77;4.23;;;;;;;10.99;47.89;100585.00;10402968;28;20232;-35
2023/05/17 07:33:27;;;;;;;6.40;4.10;;;;;;;10.58;48.43;100587.66;10410572;28;20783;-35
2023/05/17 07:38:29;;;;;;;6.13;3.70;;;;;;;10.53;48.33;100608.72;10411188;28;20236;-36
2023/05/17 07:43:31;;;;;;;8.63;3.93;;;;;;;11.48;46.95;100569.91;10411274;28;20223;-37
2023/05/17 07:48:32;;;;;;;6.30;3.60;;;;;;;10.82;47.43;100594.06;10402830;28;20288;-37
2023/05/17 07:53:34;;;;;;;8.67;4.13;;;;;;;10.85;47.04;100609.78;10404267;28;20239;-37
2023/05/17 07:58:36;;;;;;;9.37;4.43;;;;;;;12.12;45.21;100559.13;10400394;28;20240;-37
2023/05/17 08:03:38;;;;;;;8.43;3.73;;;;;;;10.10;47.70;100594.53;10409418;28;20232;-37
2023/05/17 08:08:40;;;;;;;5.13;3.50;;;;;;;11.24;46.09;100598.41;10405657;28;20290;-36
2023/05/17 08:13:43;;;;;;;5.13;3.70;;;;;;;9.99;47.05;100584.97;10406124;28;20716;-36
2023/05/17 08:18:44;;;;;;;11.03;3.80;;;;;;;11.48;45.22;100591.34;10404024;28;20243;-37
2023/05/17 08:23:46;;;;;;;7.27;4.00;;;;;;;11.74;45.41;100596.47;10403189;28;20320;-36
2023/05/17 08:28:48;;;;;;;9.33;4.43;;;;;;;10.25;47.01;100622.31;10403382;28;20240;-36
2023/05/17 08:33:50;;;;;;;6.50;4.43;;;;;;;10.28;47.11;100621.19;10402418;28;20229;-37
2023/05/17 08:38:52;;;;;;;7.27;4.37;;;;;;;11.50;45.50;100583.97;10404446;28;20230;-36
2023/05/17 08:43:55;;;;;;;6.80;4.27;;;;;;;10.83;45.16;100620.66;10400527;28;20337;-37
2023/05/17 08:49:00;;;;;;;6.70;4.07;;;;;;;12.41;45.17;100590.66;10406815;28;20685;-36
2023/05/17 08:54:04;;;;;;;7.07;3.97;;;;;;;11.44;44.65;100615.78;10402160;28;20894;-37
2023/05/17 08:59:09;;;;;;;9.30;4.23;;;;;;;11.78;44.46;100582.56;10402586;28;20734;-36
2023/05/17 09:04:11;;;;;;;8.93;5.20;;;;;;;12.14;43.52;100594.66;10406886;28;20272;-36
2023/05/17 09:09:13;;;;;;;8.07;4.40;;;;;;;10.82;45.21;100557.41;10404257;28;20240;-37
2023/05/17 09:14:16;;;;;;;8.13;4.50;;;;;;;12.03;42.91;100605.75;10401496;28;20279;-36
2023/05/17 09:19:18;;;;;;;8.27;3.90;;;;;;;11.81;43.96;100633.16;10398591;28;20233;-37
2023/05/17 09:24:29;;;;;;;6.73;4.43;;;;;;;11.74;43.79;100621.47;10403122;28;20314;-37
2023/05/17 09:29:32;;;;;;;8.03;4.43;;;;;;;11.42;42.22;100596.38;10398978;28;20243;-37
2023/05/17 09:34:37;;;;;;;8.13;4.10;;;;;;;11.19;43.90;100609.63;10396634;28;20337;-37
2023/05/17 09:39:40;;;;;;;5.07;3.80;;;;;;;11.40;44.20;100616.28;10402165;28;20268;-37
2023/05/17 09:44:52;;;;;;;8.87;3.73;;;;;;;11.19;44.59;100612.31;10396800;28;20240;-37
2023/05/17 09:49:59;;;;;;;6.00;3.67;;;;;;;11.48;43.50;100594.84;10395784;28;20424;-36
2023/05/17 09:55:01;;;;;;;6.83;4.60;;;;;;;12.47;42.60;100634.75;10391435;28;20286;-37
2023/05/17 10:00:08;;;;;;;3.73;3.23;;;;;;;12.71;42.23;100639.16;10390767;28;20248;-36
2023/05/17 10:05:14;;;;;;;5.73;3.67;;;;;;;12.05;41.96;100579.63;10389074;28;20235;-37
2023/05/17 10:10:16;;;;;;;5.47;3.33;;;;;;;12.06;43.32;100627.72;10385691;28;20362;-37
2023/05/17 10:15:19;;;;;;;8.03;3.67;;;;;;;11.85;43.72;100630.97;10390921;28;20225;-37
2023/05/17 10:20:21;;;;;;;6.43;3.50;;;;;;;12.23;43.04;100633.00;10396336;28;20310;-36
2023/05/17 10:25:23;;;;;;;4.23;3.07;;;;;;;13.13;42.26;100572.50;10387608;28;20231;-37
2023/05/17 10:30:27;;;;;;;6.17;3.40;;;;;;;12.89;42.67;100598.56;10391127;28;20692;-36
2023/05/17 10:35:31;;;;;;;5.43;3.20;;;;;;;12.09;42.88;100629.22;10389292;28;20227;-36
2023/05/17 10:40:35;;;;;;;7.40;4.10;;;;;;;11.78;43.77;100611.22;10383920;28;20238;-36
2023/05/17 10:45:37;;;;;;;6.10;3.30;;;;;;;11.14;43.99;100565.59;10391571;28;20294;-36
2023/05/17 10:50:39;;;;;;;6.23;3.57;;;;;;;12.91;42.05;100583.13;10390289;28;20241;-36
2023/05/17 10:55:52;;;;;;;5.23;3.23;;;;;;;12.42;42.00;100621.00;10380755;28;20240;-37
2023/05/17 11:06:26;;;;;;;5.50;3.40;;;;;;;9.68;47.17;100561.38;10423929;28;20820;-68
2023/05/17 11:11:27;;;;;;;7.30;4.00;;;;;;;11.10;45.50;100617.81;10417744;28;20840;-68
2023/05/17 11:16:37;;;;;;;5.90;3.37;;;;;;;10.74;44.88;100608.22;10419389;28;20267;-65
2023/05/17 11:21:48;;;;;;;4.40;3.00;;;;;;;10.22;44.10;100576.34;10418587;28;20242;-68
2023/05/17 11:26:54;;;;;;;5.33;3.50;;;;;;;10.94;43.37;100613.31;10410977;28;20326;-68
2023/05/17 11:31:56;;;;;;;4.83;3.17;;;;;;;11.57;42.40;100619.78;10417232;28;20233;-65
2023/05/17 11:36:57;;;;;;;5.10;3.27;;;;;;;10.96;43.08;100617.47;10423609;28;20233;-68
2023/05/17 11:41:59;;;;;;;5.30;3.30;;;;;;;12.10;42.16;100602.22;10418629;28;20287;-67
2023/05/17 11:47:07;;;;;;;5.20;3.40;;;;;;;10.83;42.47;100614.47;10416068;28;20322;-67
2023/05/17 11:52:09;;;;;;;4.83;3.20;;;;;;;11.23;42.61;100620.84;10383065;28;20239;-67
2023/05/17 11:57:15;;;;;;;6.37;3.30;;;;;;;11.96;41.68;100614.53;10385384;28;20252;-67
2023/05/17 12:02:30;;;;;;;4.70;3.43;;;;;;;11.68;41.72;100635.56;10377128;28;20323;-67
2023/05/17 12:07:33;;;;;;;5.83;3.37;;;;;;;11.90;41.21;100641.19;10377200;28;20770;-69
2023/05/17 12:12:35;;;;;;;5.50;3.40;;;;;;;12.65;41.04;100599.59;10384272;28;20225;-68
2023/05/17 12:17:43;;;;;;;6.50;3.40;;;;;;;11.48;40.44;100600.22;10355388;28;20355;-68
2023/05/17 12:22:53;;;;;;;5.63;3.37;;;;;;;12.85;40.25;100627.63;10349654;28;20240;-68
2023/05/17 12:28:16;;;;;;;5.83;3.50;;;;;;;13.37;39.98;100611.81;10387029;28;20244;-69
2023/05/17 12:33:18;;;;;;;4.77;3.40;;;;;;;13.18;38.94;100605.06;10342953;28;20307;-68
2023/05/17 12:38:19;;;;;;;5.60;3.50;;;;;;;12.42;38.89;100619.19;10349667;28;20332;-69
2023/05/17 12:43:24;;;;;;;6.43;3.30;;;;;;;12.44;40.09;100624.38;10350977;28;20304;-69
2023/05/17 12:48:26;;;;;;;5.70;3.27;;;;;;;14.14;39.07;100576.47;10347814;28;20244;-69
2023/05/17 12:53:35;;;;;;;4.30;3.10;;;;;;;12.41;39.66;100613.97;10352681;28;20559;-68
2023/05/17 12:58:36;;;;;;;6.23;3.00;;;;;;;12.27;39.63;100591.41;10349813;28;20344;-69
2023/05/17 13:03:38;;;;;;;8.13;3.60;;;;;;;12.55;40.99;100608.72;10346454;28;20739;-69
2023/05/17 13:08:40;;;;;;;6.07;3.57;;;;;;;13.34;40.31;100582.59;10347323;28;20734;-71
2023/05/17 13:13:45;;;;;;;4.57;3.33;;;;;;;13.19;39.02;100574.47;10348345;28;20685;-72
2023/05/17 13:18:50;;;;;;;5.87;3.17;;;;;;;13.70;38.79;100547.75;10343225;28;20234;-73
2023/05/17 13:23:52;;;;;;;4.70;2.93;;;;;;;14.70;38.66;100543.50;10348266;28;20246;-71
2023/05/17 13:28:54;;;;;;;3.77;3.00;;;;;;;14.69;37.15;100544.53;10341158;28;20240;-70
2023/05/17 13:33:56;;;;;;;5.10;3.23;;;;;;;14.44;38.25;100525.22;10341096;28;20672;-70
2023/05/17 13:39:00;;;;;;;5.23;3.57;;;;;;;12.67;38.51;100477.59;10341734;28;20229;-70
2023/05/17 13:44:02;;;;;;;6.80;3.77;;;;;;;13.50;38.19;100539.41;10344925;28;20235;-70
2023/05/17 13:49:06;;;;;;;5.43;3.30;;;;;;;13.87;38.24;100551.09;10343430;28;20291;-70
2023/05/17 13:54:09;;;;;;;5.03;3.07;;;;;;;14.91;38.33;100499.59;10343453;28;20340;-70
2023/05/17 13:59:11;;;;;;;6.00;3.63;;;;;;;14.18;39.54;100496.19;10341697;28;20686;-66
2023/05/17 14:04:13;;;;;;;6.20;3.67;;;;;;;13.61;38.84;100530.88;10341739;28;20344;-67
2023/05/17 14:09:15;;;;;;;7.20;3.43;;;;;;;14.22;38.86;100505.53;10347314;28;20229;-68
2023/05/17 14:14:16;;;;;;;4.80;3.43;;;;;;;13.25;38.03;100496.63;10343761;28;20325;-67
2023/05/17 14:19:18;;;;;;;6.40;3.20;;;;;;;15.04;37.21;100495.31;10342269;28;20252;-67
2023/05/17 14:24:21;;;;;;;4.57;3.10;;;;;;;15.04;37.22;100477.25;10341130;28;20225;-67
2023/05/17 14:29:22;;;;;;;5.37;3.10;;;;;;;15.18;37.44;100493.53;10339340;28;20229;-67
2023/05/17 14:34:24;;;;;;;6.13;3.50;;;;;;;14.78;38.06;100484.09;10342665;28;20348;-66
2023/05/17 14:39:26;;;;;;;9.63;3.80;;;;;;;13.96;39.19;100477.28;10340665;28;20260;-70
2023/05/17 14:44:28;;;;;;;4.97;2.90;;;;;;;14.05;38.60;100486.06;10342616;28;20252;-68
2023/05/17 14:49:30;;;;;;;5.87;3.43;;;;;;;13.98;38.61;100467.16;10346033;28;20229;-69
2023/05/17 14:54:32;;;;;;;5.87;3.43;;;;;;;14.22;37.90;100481.31;10342371;28;20705;-70
2023/05/17 14:59:37;;;;;;;5.50;3.40;;;;;;;13.57;37.71;100423.88;10336274;28;20255;-68
2023/05/17 15:04:38;;;;;;;5.97;3.40;;;;;;;14.61;37.17;100454.94;10339442;28;20610;-69
2023/05/17 15:09:41;;;;;;;7.67;3.27;;;;;;;14.21;38.61;100464.34;10341309;28;20233;-69
2023/05/17 15:14:45;;;;;;;8.60;3.83;;;;;;;13.67;37.87;100462.91;10343801;28;20241;-69
2023/05/17 15:19:46;;;;;;;3.90;3.30;;;;;;;14.30;38.02;100469.59;10342707;28;20225;-69
2023/05/17 15:24:48;;;;;;;5.13;3.13;;;;;;;14.10;36.91;100439.78;10339288;28;20241;-68
2023/05/17 15:29:50;;;;;;;7.03;3.23;;;;;;;15.24;36.66;100401.91;10339761;28;20229;-69
2023/05/17 15:34:52;;;;;;;8.63;3.60;;;;;;;14.67;36.09;100436.16;10337471;28;20240;-69
2023/05/17 15:39:53;;;;;;;5.37;3.43;;;;;;;16.17;35.82;100392.41;10334107;28;20272;-70
2023/05/17 15:44:55;;;;;;;8.43;4.30;;;;;;;14.47;37.47;100395.59;10337320;28;20245;-69
2023/05/17 15:49:57;;;;;;;6.40;2.80;;;;;;;14.95;37.61;100429.97;10341880;28;20229;-69
2023/05/17 15:54:58;;;;;;;7.70;3.60;;;;;;;14.95;36.69;100417.31;10346391;28;20242;-68
2023/05/17 16:00:01;;;;;;;6.17;3.33;;;;;;;13.84;37.17;100349.69;10341731;28;20994;-67
2023/05/17 16:05:04;;;;;;;4.40;3.30;;;;;;;15.16;36.27;100429.03;10350362;28;20230;-68
2023/05/17 16:10:06;;;;;;;8.20;3.27;;;;;;;15.85;35.49;100378.69;10352861;28;20243;-67
2023/05/17 16:15:08;;;;;;;5.13;3.30;;;;;;;14.69;35.43;100396.38;10343577;28;20330;-70
2023/05/17 16:20:11;;;;;;;5.97;3.20;;;;;;;14.81;36.11;100407.44;10346596;28;20236;-67
2023/05/17 16:25:19;;;;;;;7.70;3.13;;;;;;;16.72;35.31;100366.03;10341049;28;20775;-67
2023/05/17 16:30:22;;;;;;;4.73;3.40;;;;;;;14.39;35.17;100331.13;10346326;28;20241;-70
2023/05/17 16:35:23;;;;;;;4.47;3.03;;;;;;;15.64;34.96;100367.03;10347349;28;20237;-69
2023/05/17 16:40:27;;;;;;;6.90;3.33;;;;;;;15.57;35.16;100382.38;10339834;28;20237;-67
2023/05/17 16:45:29;;;;;;;7.63;3.50;;;;;;;15.28;35.00;100381.59;10347906;28;20716;-70
2023/05/17 16:50:31;;;;;;;7.67;3.27;;;;;;;15.13;34.64;100351.25;10345457;28;22471;-68
2023/05/17 16:55:34;;;;;;;4.83;3.03;;;;;;;15.93;34.98;100386.59;10346766;28;20323;-68
2023/05/17 17:00:36;;;;;;;4.73;3.00;;;;;;;16.62;34.14;100366.44;10339749;28;20610;-69
2023/05/17 17:05:38;;;;;;;8.00;3.00;;;;;;;15.83;34.91;100372.66;10342784;28;20383;-68
2023/05/17 17:10:40;;;;;;;6.00;3.13;;;;;;;15.70;35.22;100350.00;10347418;28;20703;-68
2023/05/17 17:15:41;;;;;;;9.27;4.20;;;;;;;16.67;34.95;100352.31;10340992;28;20244;-68
2023/05/17 17:20:44;;;;;;;5.37;3.10;;;;;;;15.11;35.94;100326.38;10344973;28;20235;-68
2023/05/17 17:25:45;;;;;;;5.13;2.93;;;;;;;15.93;35.34;100331.78;10346712;28;20243;-67
2023/05/17 17:30:47;;;;;;;7.73;2.93;;;;;;;15.83;35.60;100354.59;10343917;28;20696;-68
2023/05/17 17:35:49;;;;;;;4.13;2.77;;;;;;;15.53;34.87;100332.50;10339784;28;20236;-67
2023/05/17 17:40:50;;;;;;;5.67;3.30;;;;;;;16.14;34.30;100323.47;10341050;28;20236;-68
2023/05/17 17:45:52;;;;;;;4.97;3.10;;;;;;;15.87;35.61;100347.75;10343557;28;20236;-67
2023/05/17 17:50:54;;;;;;;5.30;2.33;;;;;;;16.13;35.17;100342.56;10343841;28;20241;-68
2023/05/17 17:55:56;;;;;;;7.70;3.03;;;;;;;15.57;35.29;100331.13;10340242;28;20780;-66
2023/05/17 18:00:57;;;;;;;4.80;2.93;;;;;;;17.14;34.49;100312.47;10341299;28;20236;-68
2023/05/17 18:05:59;;;;;;;7.53;3.17;;;;;;;16.55;35.31;100335.94;10342471;28;20229;-68
2023/05/17 18:11:01;;;;;;;6.87;3.20;;;;;;;17.09;35.43;100315.00;10340835;28;20225;-68
2023/05/17 18:16:03;;;;;;;6.63;3.33;;;;;;;15.22;36.58;100273.72;10343491;28;20247;-67
2023/05/17 18:21:07;;;;;;;6.80;3.80;;;;;;;16.84;35.08;100285.13;10338070;28;20709;-68
2023/05/17 18:26:08;;;;;;;6.07;3.40;;;;;;;15.97;35.71;100304.16;10342156;28;20248;-67
2023/05/17 18:31:10;;;;;;;5.50;3.03;;;;;;;15.40;36.06;100275.84;10343922;28;20233;-67
2023/05/17 18:36:12;;;;;;;4.37;2.97;;;;;;;15.86;35.84;100312.88;10340766;28;20267;-69
2023/05/17 18:41:14;;;;;;;6.70;3.17;;;;;;;15.32;36.32;100307.38;10342421;28;20271;-66
2023/05/17 18:46:17;;;;;;;5.77;3.40;;;;;;;16.18;35.85;100297.72;10341186;28;20241;-68
2023/05/17 18:51:18;;;;;;;5.77;2.83;;;;;;;16.03;36.19;100306.03;10342453;28;20240;-68
2023/05/17 18:56:23;;;;;;;5.97;3.20;;;;;;;15.78;36.34;100302.28;10340684;28;20912;-73
2023/05/17 19:01:25;;;;;;;5.57;3.17;;;;;;;15.61;36.78;100315.34;10338975;28;20233;-68
2023/05/17 19:06:27;;;;;;;5.80;3.20;;;;;;;15.58;36.57;100321.16;10343966;28;20236;-68
2023/05/17 19:11:29;;;;;;;4.37;2.60;;;;;;;16.02;36.13;100319.72;10337709;28;20396;-67
2023/05/17 19:16:31;;;;;;;4.67;3.07;;;;;;;15.34;36.28;100307.16;10343987;28;20316;-67
2023/05/17 19:21:33;;;;;;;6.17;3.17;;;;;;;14.45;37.01;100267.59;10338573;28;20777;-67
2023/05/17 19:26:34;;;;;;;5.43;3.47;;;;;;;14.08;37.29;100264.25;10346643;28;20252;-68
2023/05/17 19:31:36;;;;;;;8.27;3.60;;;;;;;15.69;36.89;100334.03;10352846;28;20850;-69
2023/05/17 19:36:40;;;;;;;7.77;3.93;;;;;;;14.75;37.86;100352.50;10345716;28;20687;-67
2023/05/17 19:41:41;;;;;;;6.53;3.80;;;;;;;14.75;37.84;100340.91;10354678;28;20323;-69
2023/05/17 19:46:43;;;;;;;6.10;3.63;;;;;;;13.73;39.00;100304.47;10356575;28;20240;-68
2023/05/17 19:51:46;;;;;;;7.23;3.50;;;;;;;15.05;37.57;100338.78;10349999;28;20236;-68
2023/05/17 19:56:48;;;;;;;6.90;4.20;;;;;;;14.14;38.95;100342.34;10350816;28;20332;-69
2023/05/17 20:01:50;;;;;;;6.10;3.60;;;;;;;15.20;37.41;100348.59;10353211;28;20262;-66
2023/05/17 20:06:53;;;;;;;6.73;3.60;;;;;;;15.47;36.94;100338.72;10350248;28;20240;-70
2023/05/17 20:11:56;;;;;;;5.73;3.43;;;;;;;14.43;38.63;100332.41;10356812;28;20356;-68
2023/05/17 20:16:57;;;;;;;4.27;3.37;;;;;;;15.57;37.67;100341.06;10355840;28;20297;-68
2023/05/17 20:22:00;;;;;;;7.20;3.60;;;;;;;14.95;38.05;100351.81;10355393;28;20237;-69
2023/05/17 20:27:05;;;;;;;4.77;3.43;;;;;;;15.20;37.77;100365.63;10357486;28;20231;-69
2023/05/17 20:32:09;;;;;;;6.53;3.07;;;;;;;14.72;38.42;100350.19;10348091;28;20322;-68
2023/05/17 20:37:11;;;;;;;5.53;3.17;;;;;;;13.28;39.34;100216.78;10353617;28;20257;-70
2023/05/17 20:42:16;;;;;;;4.60;3.50;;;;;;;14.12;39.17;100338.16;10353646;28;20353;-72
2023/05/17 20:47:19;;;;;;;7.30;3.57;;;;;;;12.62;40.96;100222.22;10355840;28;20234;-69
2023/05/17 20:52:21;;;;;;;6.80;3.87;;;;;;;12.96;40.51;100314.78;10350585;28;20225;-69
2023/05/17 20:57:28;;;;;;;7.87;3.57;;;;;;;13.31;40.45;100343.75;10352662;28;20225;-69
2023/05/17 21:02:29;;;;;;;5.97;3.30;;;;;;;12.18;41.63;100263.28;10348996;28;20805;-69
2023/05/17 21:07:31;;;;;;;5.10;3.40;;;;;;;12.49;41.97;100330.25;10351102;28;20790;-68
2023/05/17 21:12:34;;;;;;;6.40;3.60;;;;;;;11.60;42.32;100255.72;10347664;28;20332;-69
2023/05/17 21:17:38;;;;;;;6.40;3.83;;;;;;;12.98;41.50;100341.47;10349949;28;21814;-70
2023/05/17 21:22:43;;;;;;;8.43;4.10;;;;;;;13.36;41.07;100339.50;10350155;28;20251;-68
2023/05/17 21:27:44;;;;;;;5.27;3.77;;;;;;;12.81;41.16;100349.72;10346839;28;20240;-72
2023/05/17 21:32:46;;;;;;;4.57;3.50;;;;;;;11.68;42.68;100292.41;10354867;28;20236;-71
2023/05/17 21:37:51;;;;;;;7.77;3.60;;;;;;;12.11;42.30;100322.19;10344536;28;20205;-72
2023/05/17 21:42:53;;;;;;;5.23;3.57;;;;;;;13.27;41.38;100348.63;10351050;28;20249;-70
2023/05/17 21:47:54;;;;;;;6.50;3.80;;;;;;;12.02;42.63;100304.50;10346977;28;20229;-68
2023/05/17 21:52:56;;;;;;;5.27;3.53;;;;;;;13.38;40.83;100337.44;10347184;28;21174;-69
2023/05/17 21:57:58;;;;;;;6.37;3.90;;;;;;;13.46;40.44;100350.78;10351024;28;20324;-69
2023/05/17 22:03:00;;;;;;;5.87;3.93;;;;;;;12.82;41.36;100342.47;10345872;28;20783;-70
2023/05/17 22:08:01;;;;;;;4.47;3.53;;;;;;;12.36;41.81;100328.16;10345732;28;20221;-69
2023/05/17 22:13:07;;;;;;;6.33;4.07;;;;;;;11.35;43.70;100273.81;10347422;28;20307;-70
2023/05/17 22:18:11;;;;;;;7.80;4.20;;;;;;;8.94;46.99;100091.13;10350214;28;20257;-70
2023/05/17 22:23:14;;;;;;;7.17;4.07;;;;;;;10.30;45.51;100272.25;10346125;28;20265;-70
2023/05/17 22:28:15;;;;;;;6.10;3.83;;;;;;;9.93;45.86;100257.59;10348262;28;20794;-70
2023/05/17 22:33:17;;;;;;;6.10;4.17;;;;;;;9.59;46.60;100245.22;10349408;28;20268;-69
2023/05/17 22:38:19;;;;;;;7.10;3.97;;;;;;;9.81;46.10;100261.59;10346525;28;21249;-70
2023/05/17 22:43:20;;;;;;;6.30;4.47;;;;;;;9.54;46.73;100234.19;10353069;28;20244;-70
2023/05/17 22:48:22;;;;;;;6.30;3.93;;;;;;;11.59;43.69;100317.53;10345737;28;20231;-70
2023/05/17 22:53:24;;;;;;;11.00;5.10;;;;;;;7.38;49.63;100097.69;10353259;28;20229;-70
2023/05/17 22:58:26;;;;;;;6.93;4.40;;;;;;;7.72;49.78;100149.16;10349605;28;20255;-70
2023/05/17 23:03:27;;;;;;;6.47;4.03;;;;;;;7.88;49.16;100174.25;10351859;28;20237;-70
2023/05/17 23:08:31;;;;;;;8.77;4.07;;;;;;;7.29;50.36;100134.88;10348458;28;20684;-69
2023/05/17 23:13:32;;;;;;;7.33;4.80;;;;;;;7.18;50.21;100133.28;10347337;28;20252;-70
2023/05/17 23:18:34;;;;;;;4.30;3.60;;;;;;;8.23;49.02;100207.94;10346787;28;20256;-69
2023/05/17 23:23:36;;;;;;;6.77;5.13;;;;;;;7.48;49.79;100163.16;10349051;28;20298;-69